sensor_id;sensor_type;location;lat;lon;timestamp;P1;durP1;ratioP1;P2;durP2;ratioP2
16093;SDS011;8151;47.824;12.092;2022-12-29T00:01:10;2.30;;;2.10;;
16093;SDS011;8151;47.824;12.092;2022-12-29T00:03:38;2.03;;;1.80;;
16093;SDS011;8151;47.824;12.092;2022-12-29T00:06:07;2.60;;;2.20;;
16093;SDS011;8151;47.824;12.092;2022-12-29T00:08:37;2.97;;;1.93;;
16093;SDS011;8151;47.824;12.092;2022-12-29T00:11:09;2.63;;;2.00;;
16093;SDS011;8151;47.824;12.092;2022-12-29T00:13:39;4.47;;;2.00;;
16093;SDS011;8151;47.824;12.092;2022-12-29T00:16:25;4.07;;;2.40;;
16093;SDS011;8151;47.824;12.092;2022-12-29T00:18:55;2.23;;;2.03;;
16093;SDS011;8151;47.824;12.092;2022-12-29T00:21:23;2.10;;;1.90;;
16093;SDS011;8151;47.824;12.092;2022-12-29T00:24:13;3.20;;;1.90;;
16093;SDS011;8151;47.824;12.092;2022-12-29T00:27:08;2.73;;;1.90;;
16093;SDS011;8151;47.824;12.092;2022-12-29T00:29:57;2.70;;;2.07;;
16093;SDS011;8151;47.824;12.092;2022-12-29T00:32:43;3.77;;;2.13;;
16093;SDS011;8151;47.824;12.092;2022-12-29T00:35:30;4.07;;;2.30;;
16093;SDS011;8151;47.824;12.092;2022-12-29T00:38:04;2.53;;;2.20;;
16093;SDS011;8151;47.824;12.092;2022-12-29T00:40:54;2.27;;;2.07;;
16093;SDS011;8151;47.824;12.092;2022-12-29T00:43:39;2.10;;;1.90;;
16093;SDS011;8151;47.824;12.092;2022-12-29T00:46:27;2.47;;;1.93;;
16093;SDS011;8151;47.824;12.092;2022-12-29T00:48:55;2.30;;;2.10;;
16093;SDS011;8151;47.824;12.092;2022-12-29T00:51:44;2.43;;;2.00;;
16093;SDS011;8151;47.824;12.092;2022-12-29T00:54:13;2.90;;;1.90;;
16093;SDS011;8151;47.824;12.092;2022-12-29T00:56:46;2.03;;;1.93;;
16093;SDS011;8151;47.824;12.092;2022-12-29T00:59:15;3.93;;;1.93;;
16093;SDS011;8151;47.824;12.092;2022-12-29T01:01:44;2.23;;;1.90;;
16093;SDS011;8151;47.824;12.092;2022-12-29T01:04:14;3.20;;;2.50;;
16093;SDS011;8151;47.824;12.092;2022-12-29T01:06:44;2.10;;;1.87;;
16093;SDS011;8151;47.824;12.092;2022-12-29T01:09:13;2.53;;;1.90;;
16093;SDS011;8151;47.824;12.092;2022-12-29T01:12:01;2.57;;;2.17;;
16093;SDS011;8151;47.824;12.092;2022-12-29T01:14:29;2.83;;;2.00;;
16093;SDS011;8151;47.824;12.092;2022-12-29T01:16:58;2.47;;;1.70;;
16093;SDS011;8151;47.824;12.092;2022-12-29T01:19:27;3.17;;;1.97;;
16093;SDS011;8151;47.824;12.092;2022-12-29T01:21:56;1.97;;;1.80;;
16093;SDS011;8151;47.824;12.092;2022-12-29T01:24:25;2.00;;;1.80;;
16093;SDS011;8151;47.824;12.092;2022-12-29T01:26:53;3.03;;;2.13;;
16093;SDS011;8151;47.824;12.092;2022-12-29T01:29:23;2.10;;;1.90;;
16093;SDS011;8151;47.824;12.092;2022-12-29T01:31:52;3.33;;;2.23;;
16093;SDS011;8151;47.824;12.092;2022-12-29T01:34:20;2.17;;;1.97;;
16093;SDS011;8151;47.824;12.092;2022-12-29T01:36:48;3.73;;;1.87;;
16093;SDS011;8151;47.824;12.092;2022-12-29T01:39:17;1.60;;;1.50;;
16093;SDS011;8151;47.824;12.092;2022-12-29T01:41:45;1.87;;;1.67;;
16093;SDS011;8151;47.824;12.092;2022-12-29T01:47:16;2.60;;;1.83;;
16093;SDS011;8151;47.824;12.092;2022-12-29T01:49:51;2.63;;;1.60;;
16093;SDS011;8151;47.824;12.092;2022-12-29T01:52:22;2.93;;;1.93;;
16093;SDS011;8151;47.824;12.092;2022-12-29T01:54:52;1.80;;;1.57;;
16093;SDS011;8151;47.824;12.092;2022-12-29T01:57:24;2.57;;;1.70;;
16093;SDS011;8151;47.824;12.092;2022-12-29T01:59:58;2.00;;;1.80;;
16093;SDS011;8151;47.824;12.092;2022-12-29T02:02:30;1.93;;;1.70;;
16093;SDS011;8151;47.824;12.092;2022-12-29T02:05:01;2.50;;;1.67;;
16093;SDS011;8151;47.824;12.092;2022-12-29T02:07:33;2.47;;;2.00;;
16093;SDS011;8151;47.824;12.092;2022-12-29T02:10:02;1.87;;;1.77;;
16093;SDS011;8151;47.824;12.092;2022-12-29T02:12:31;2.30;;;1.83;;
16093;SDS011;8151;47.824;12.092;2022-12-29T02:15:02;1.57;;;1.47;;
16093;SDS011;8151;47.824;12.092;2022-12-29T02:17:40;2.03;;;1.83;;
16093;SDS011;8151;47.824;12.092;2022-12-29T02:20:25;2.10;;;1.40;;
16093;SDS011;8151;47.824;12.092;2022-12-29T02:23:19;1.47;;;1.37;;
16093;SDS011;8151;47.824;12.092;2022-12-29T02:26:14;1.60;;;1.50;;
16093;SDS011;8151;47.824;12.092;2022-12-29T02:29:01;2.13;;;1.60;;
16093;SDS011;8151;47.824;12.092;2022-12-29T02:31:50;1.67;;;1.57;;
16093;SDS011;8151;47.824;12.092;2022-12-29T02:34:27;3.27;;;1.63;;
16093;SDS011;8151;47.824;12.092;2022-12-29T02:37:05;1.63;;;1.47;;
16093;SDS011;8151;47.824;12.092;2022-12-29T02:39:41;3.03;;;2.10;;
16093;SDS011;8151;47.824;12.092;2022-12-29T02:42:19;3.53;;;1.73;;
16093;SDS011;8151;47.824;12.092;2022-12-29T02:44:54;1.63;;;1.53;;
16093;SDS011;8151;47.824;12.092;2022-12-29T02:47:29;1.67;;;1.57;;
16093;SDS011;8151;47.824;12.092;2022-12-29T02:50:06;3.43;;;1.70;;
16093;SDS011;8151;47.824;12.092;2022-12-29T02:52:40;3.23;;;1.83;;
16093;SDS011;8151;47.824;12.092;2022-12-29T02:55:13;2.57;;;1.73;;
16093;SDS011;8151;47.824;12.092;2022-12-29T02:57:41;2.80;;;1.93;;
16093;SDS011;8151;47.824;12.092;2022-12-29T03:00:10;3.03;;;1.80;;
16093;SDS011;8151;47.824;12.092;2022-12-29T03:05:49;2.10;;;1.40;;
16093;SDS011;8151;47.824;12.092;2022-12-29T03:08:31;1.67;;;1.57;;
16093;SDS011;8151;47.824;12.092;2022-12-29T03:11:07;1.63;;;1.50;;
16093;SDS011;8151;47.824;12.092;2022-12-29T03:14:00;1.60;;;1.50;;
16093;SDS011;8151;47.824;12.092;2022-12-29T03:16:54;1.80;;;1.60;;
16093;SDS011;8151;47.824;12.092;2022-12-29T03:19:30;1.50;;;1.40;;
16093;SDS011;8151;47.824;12.092;2022-12-29T03:22:01;1.90;;;1.70;;
16093;SDS011;8151;47.824;12.092;2022-12-29T03:24:52;2.20;;;1.93;;
16093;SDS011;8151;47.824;12.092;2022-12-29T03:27:23;1.93;;;1.33;;
16093;SDS011;8151;47.824;12.092;2022-12-29T03:29:57;1.83;;;1.70;;
16093;SDS011;8151;47.824;12.092;2022-12-29T03:32:33;1.93;;;1.80;;
16093;SDS011;8151;47.824;12.092;2022-12-29T03:35:07;1.93;;;1.73;;
16093;SDS011;8151;47.824;12.092;2022-12-29T03:37:40;2.20;;;1.87;;
16093;SDS011;8151;47.824;12.092;2022-12-29T03:40:12;2.03;;;1.83;;
16093;SDS011;8151;47.824;12.092;2022-12-29T03:42:40;3.40;;;2.00;;
16093;SDS011;8151;47.824;12.092;2022-12-29T03:45:09;1.80;;;1.70;;
16093;SDS011;8151;47.824;12.092;2022-12-29T03:47:38;2.47;;;1.73;;
16093;SDS011;8151;47.824;12.092;2022-12-29T03:50:11;1.70;;;1.60;;
16093;SDS011;8151;47.824;12.092;2022-12-29T03:52:40;2.13;;;1.50;;
16093;SDS011;8151;47.824;12.092;2022-12-29T03:55:08;1.40;;;1.30;;
16093;SDS011;8151;47.824;12.092;2022-12-29T03:57:37;2.10;;;1.90;;
16093;SDS011;8151;47.824;12.092;2022-12-29T04:00:07;1.73;;;1.60;;
16093;SDS011;8151;47.824;12.092;2022-12-29T04:02:37;1.90;;;1.70;;
16093;SDS011;8151;47.824;12.092;2022-12-29T04:05:06;2.13;;;1.60;;
16093;SDS011;8151;47.824;12.092;2022-12-29T04:07:36;1.77;;;1.50;;
16093;SDS011;8151;47.824;12.092;2022-12-29T04:10:05;2.83;;;1.70;;
16093;SDS011;8151;47.824;12.092;2022-12-29T04:12:34;2.40;;;1.73;;
16093;SDS011;8151;47.824;12.092;2022-12-29T04:15:02;2.77;;;1.47;;
16093;SDS011;8151;47.824;12.092;2022-12-29T04:17:31;1.63;;;1.53;;
16093;SDS011;8151;47.824;12.092;2022-12-29T04:20:00;1.60;;;1.50;;
16093;SDS011;8151;47.824;12.092;2022-12-29T04:22:43;2.57;;;1.90;;
16093;SDS011;8151;47.824;12.092;2022-12-29T04:25:12;2.80;;;1.60;;
16093;SDS011;8151;47.824;12.092;2022-12-29T04:27:40;2.70;;;1.57;;
16093;SDS011;8151;47.824;12.092;2022-12-29T04:30:09;1.77;;;1.50;;
16093;SDS011;8151;47.824;12.092;2022-12-29T04:32:39;1.87;;;1.60;;
16093;SDS011;8151;47.824;12.092;2022-12-29T04:35:08;2.40;;;1.57;;
16093;SDS011;8151;47.824;12.092;2022-12-29T04:37:36;2.63;;;1.60;;
16093;SDS011;8151;47.824;12.092;2022-12-29T04:40:07;3.77;;;1.53;;
16093;SDS011;8151;47.824;12.092;2022-12-29T04:42:36;2.07;;;1.30;;
16093;SDS011;8151;47.824;12.092;2022-12-29T04:45:05;1.47;;;1.33;;
16093;SDS011;8151;47.824;12.092;2022-12-29T04:47:36;1.20;;;1.10;;
16093;SDS011;8151;47.824;12.092;2022-12-29T04:50:05;1.60;;;1.50;;
16093;SDS011;8151;47.824;12.092;2022-12-29T04:52:34;1.83;;;1.20;;
16093;SDS011;8151;47.824;12.092;2022-12-29T04:55:03;1.90;;;1.43;;
16093;SDS011;8151;47.824;12.092;2022-12-29T04:57:34;1.70;;;1.30;;
16093;SDS011;8151;47.824;12.092;2022-12-29T05:00:03;1.30;;;1.20;;
16093;SDS011;8151;47.824;12.092;2022-12-29T05:02:33;2.33;;;1.63;;
16093;SDS011;8151;47.824;12.092;2022-12-29T05:05:02;1.90;;;1.30;;
16093;SDS011;8151;47.824;12.092;2022-12-29T05:07:30;1.80;;;1.43;;
16093;SDS011;8151;47.824;12.092;2022-12-29T05:10:00;3.47;;;1.60;;
16093;SDS011;8151;47.824;12.092;2022-12-29T05:12:29;2.73;;;1.50;;
16093;SDS011;8151;47.824;12.092;2022-12-29T05:14:59;1.63;;;1.53;;
16093;SDS011;8151;47.824;12.092;2022-12-29T05:17:29;1.43;;;1.33;;
16093;SDS011;8151;47.824;12.092;2022-12-29T05:19:58;2.33;;;1.50;;
16093;SDS011;8151;47.824;12.092;2022-12-29T05:22:26;1.40;;;1.20;;
16093;SDS011;8151;47.824;12.092;2022-12-29T05:24:54;1.40;;;1.30;;
16093;SDS011;8151;47.824;12.092;2022-12-29T05:27:23;1.33;;;1.23;;
16093;SDS011;8151;47.824;12.092;2022-12-29T05:29:51;2.50;;;1.37;;
16093;SDS011;8151;47.824;12.092;2022-12-29T05:32:21;1.37;;;1.17;;
16093;SDS011;8151;47.824;12.092;2022-12-29T05:34:49;1.60;;;1.50;;
16093;SDS011;8151;47.824;12.092;2022-12-29T05:37:18;3.20;;;1.50;;
16093;SDS011;8151;47.824;12.092;2022-12-29T05:39:46;1.83;;;1.23;;
16093;SDS011;8151;47.824;12.092;2022-12-29T05:42:15;2.10;;;1.73;;
16093;SDS011;8151;47.824;12.092;2022-12-29T05:44:44;2.03;;;1.23;;
16093;SDS011;8151;47.824;12.092;2022-12-29T05:47:12;1.50;;;1.40;;
16093;SDS011;8151;47.824;12.092;2022-12-29T05:49:42;1.50;;;1.30;;
16093;SDS011;8151;47.824;12.092;2022-12-29T05:52:10;2.73;;;1.53;;
16093;SDS011;8151;47.824;12.092;2022-12-29T05:54:39;1.60;;;1.37;;
16093;SDS011;8151;47.824;12.092;2022-12-29T05:57:07;2.63;;;1.67;;
16093;SDS011;8151;47.824;12.092;2022-12-29T05:59:36;1.63;;;1.40;;
16093;SDS011;8151;47.824;12.092;2022-12-29T06:02:04;1.80;;;1.47;;
16093;SDS011;8151;47.824;12.092;2022-12-29T06:04:33;1.73;;;1.43;;
16093;SDS011;8151;47.824;12.092;2022-12-29T06:07:03;2.37;;;1.60;;
16093;SDS011;8151;47.824;12.092;2022-12-29T06:09:31;1.63;;;1.50;;
16093;SDS011;8151;47.824;12.092;2022-12-29T06:12:00;1.53;;;1.40;;
16093;SDS011;8151;47.824;12.092;2022-12-29T06:14:28;2.27;;;1.50;;
16093;SDS011;8151;47.824;12.092;2022-12-29T06:16:56;1.87;;;1.43;;
16093;SDS011;8151;47.824;12.092;2022-12-29T06:19:25;1.47;;;1.20;;
16093;SDS011;8151;47.824;12.092;2022-12-29T06:21:53;1.37;;;1.27;;
16093;SDS011;8151;47.824;12.092;2022-12-29T06:24:23;1.40;;;1.30;;
16093;SDS011;8151;47.824;12.092;2022-12-29T06:26:51;1.37;;;1.27;;
16093;SDS011;8151;47.824;12.092;2022-12-29T06:29:20;1.43;;;1.23;;
16093;SDS011;8151;47.824;12.092;2022-12-29T06:31:48;1.70;;;1.20;;
16093;SDS011;8151;47.824;12.092;2022-12-29T06:34:18;1.97;;;1.43;;
16093;SDS011;8151;47.824;12.092;2022-12-29T06:36:46;1.67;;;1.30;;
16093;SDS011;8151;47.824;12.092;2022-12-29T06:39:15;2.57;;;1.60;;
16093;SDS011;8151;47.824;12.092;2022-12-29T06:41:44;1.90;;;1.30;;
16093;SDS011;8151;47.824;12.092;2022-12-29T06:44:13;1.67;;;1.30;;
16093;SDS011;8151;47.824;12.092;2022-12-29T06:46:41;1.50;;;1.40;;
16093;SDS011;8151;47.824;12.092;2022-12-29T06:49:09;1.67;;;1.20;;
16093;SDS011;8151;47.824;12.092;2022-12-29T06:51:38;5.60;;;1.83;;
16093;SDS011;8151;47.824;12.092;2022-12-29T06:54:06;2.33;;;1.50;;
16093;SDS011;8151;47.824;12.092;2022-12-29T06:56:35;1.60;;;1.50;;
16093;SDS011;8151;47.824;12.092;2022-12-29T06:59:04;6.70;;;1.80;;
16093;SDS011;8151;47.824;12.092;2022-12-29T07:01:33;1.40;;;1.30;;
16093;SDS011;8151;47.824;12.092;2022-12-29T07:04:03;3.20;;;1.17;;
16093;SDS011;8151;47.824;12.092;2022-12-29T07:06:31;1.63;;;1.40;;
16093;SDS011;8151;47.824;12.092;2022-12-29T07:09:00;1.47;;;1.37;;
16093;SDS011;8151;47.824;12.092;2022-12-29T07:11:28;1.93;;;1.53;;
16093;SDS011;8151;47.824;12.092;2022-12-29T07:13:57;2.83;;;1.60;;
16093;SDS011;8151;47.824;12.092;2022-12-29T07:16:29;1.53;;;1.30;;
16093;SDS011;8151;47.824;12.092;2022-12-29T07:18:58;1.80;;;1.23;;
16093;SDS011;8151;47.824;12.092;2022-12-29T07:21:26;2.63;;;1.60;;
16093;SDS011;8151;47.824;12.092;2022-12-29T07:23:54;1.60;;;1.50;;
16093;SDS011;8151;47.824;12.092;2022-12-29T07:26:23;3.10;;;1.30;;
16093;SDS011;8151;47.824;12.092;2022-12-29T07:28:54;1.93;;;1.50;;
16093;SDS011;8151;47.824;12.092;2022-12-29T07:31:23;1.63;;;1.30;;
16093;SDS011;8151;47.824;12.092;2022-12-29T07:33:52;2.63;;;1.40;;
16093;SDS011;8151;47.824;12.092;2022-12-29T07:36:22;1.50;;;1.40;;
16093;SDS011;8151;47.824;12.092;2022-12-29T07:38:58;2.13;;;1.60;;
16093;SDS011;8151;47.824;12.092;2022-12-29T07:41:27;1.90;;;1.60;;
16093;SDS011;8151;47.824;12.092;2022-12-29T07:43:55;2.40;;;1.33;;
16093;SDS011;8151;47.824;12.092;2022-12-29T07:46:23;1.33;;;1.23;;
16093;SDS011;8151;47.824;12.092;2022-12-29T07:49:13;1.60;;;1.40;;
16093;SDS011;8151;47.824;12.092;2022-12-29T07:51:41;1.37;;;1.27;;
16093;SDS011;8151;47.824;12.092;2022-12-29T07:54:10;2.33;;;1.43;;
16093;SDS011;8151;47.824;12.092;2022-12-29T07:56:39;1.57;;;1.37;;
16093;SDS011;8151;47.824;12.092;2022-12-29T07:59:07;1.43;;;1.33;;
16093;SDS011;8151;47.824;12.092;2022-12-29T08:01:36;1.57;;;1.40;;
16093;SDS011;8151;47.824;12.092;2022-12-29T08:04:04;1.73;;;1.30;;
16093;SDS011;8151;47.824;12.092;2022-12-29T08:06:35;1.77;;;1.60;;
16093;SDS011;8151;47.824;12.092;2022-12-29T08:09:04;1.50;;;1.40;;
16093;SDS011;8151;47.824;12.092;2022-12-29T08:11:43;1.50;;;1.40;;
16093;SDS011;8151;47.824;12.092;2022-12-29T08:14:12;1.80;;;1.37;;
16093;SDS011;8151;47.824;12.092;2022-12-29T08:16:41;2.20;;;1.10;;
16093;SDS011;8151;47.824;12.092;2022-12-29T08:19:09;1.97;;;1.33;;
16093;SDS011;8151;47.824;12.092;2022-12-29T08:21:40;2.33;;;1.20;;
16093;SDS011;8151;47.824;12.092;2022-12-29T08:24:08;2.70;;;1.40;;
16093;SDS011;8151;47.824;12.092;2022-12-29T08:26:37;1.97;;;1.20;;
16093;SDS011;8151;47.824;12.092;2022-12-29T08:29:06;2.10;;;1.53;;
16093;SDS011;8151;47.824;12.092;2022-12-29T08:31:34;1.43;;;1.33;;
16093;SDS011;8151;47.824;12.092;2022-12-29T08:34:03;1.60;;;1.50;;
16093;SDS011;8151;47.824;12.092;2022-12-29T08:36:32;2.07;;;1.37;;
16093;SDS011;8151;47.824;12.092;2022-12-29T08:39:02;1.90;;;1.70;;
16093;SDS011;8151;47.824;12.092;2022-12-29T08:41:31;2.03;;;1.40;;
16093;SDS011;8151;47.824;12.092;2022-12-29T08:43:59;1.80;;;1.60;;
16093;SDS011;8151;47.824;12.092;2022-12-29T08:46:28;3.07;;;1.53;;
16093;SDS011;8151;47.824;12.092;2022-12-29T08:48:56;1.50;;;1.40;;
16093;SDS011;8151;47.824;12.092;2022-12-29T08:51:25;1.77;;;1.67;;
16093;SDS011;8151;47.824;12.092;2022-12-29T08:53:53;3.60;;;1.40;;
16093;SDS011;8151;47.824;12.092;2022-12-29T08:56:23;1.70;;;1.60;;
16093;SDS011;8151;47.824;12.092;2022-12-29T08:58:52;1.30;;;1.20;;
16093;SDS011;8151;47.824;12.092;2022-12-29T09:01:21;1.37;;;1.27;;
16093;SDS011;8151;47.824;12.092;2022-12-29T09:03:50;2.07;;;1.50;;
16093;SDS011;8151;47.824;12.092;2022-12-29T09:06:38;1.50;;;1.40;;
16093;SDS011;8151;47.824;12.092;2022-12-29T09:09:07;2.37;;;1.50;;
16093;SDS011;8151;47.824;12.092;2022-12-29T09:11:36;1.43;;;1.30;;
16093;SDS011;8151;47.824;12.092;2022-12-29T09:14:05;1.60;;;1.50;;
16093;SDS011;8151;47.824;12.092;2022-12-29T09:16:33;3.27;;;1.97;;
16093;SDS011;8151;47.824;12.092;2022-12-29T09:19:02;1.90;;;1.70;;
16093;SDS011;8151;47.824;12.092;2022-12-29T09:21:31;1.50;;;1.40;;
16093;SDS011;8151;47.824;12.092;2022-12-29T09:24:00;1.87;;;1.60;;
16093;SDS011;8151;47.824;12.092;2022-12-29T09:26:28;1.83;;;1.50;;
16093;SDS011;8151;47.824;12.092;2022-12-29T09:28:58;3.10;;;1.63;;
16093;SDS011;8151;47.824;12.092;2022-12-29T09:31:26;1.87;;;1.60;;
16093;SDS011;8151;47.824;12.092;2022-12-29T09:33:55;1.47;;;1.33;;
16093;SDS011;8151;47.824;12.092;2022-12-29T09:36:23;1.50;;;1.40;;
16093;SDS011;8151;47.824;12.092;2022-12-29T09:38:52;2.53;;;1.77;;
16093;SDS011;8151;47.824;12.092;2022-12-29T09:41:23;3.10;;;1.50;;
16093;SDS011;8151;47.824;12.092;2022-12-29T09:44:02;2.30;;;1.60;;
16093;SDS011;8151;47.824;12.092;2022-12-29T09:46:37;1.93;;;1.43;;
16093;SDS011;8151;47.824;12.092;2022-12-29T09:49:09;1.63;;;1.50;;
16093;SDS011;8151;47.824;12.092;2022-12-29T09:51:49;1.87;;;1.50;;
16093;SDS011;8151;47.824;12.092;2022-12-29T09:54:23;2.50;;;1.37;;
16093;SDS011;8151;47.824;12.092;2022-12-29T09:57:00;1.60;;;1.50;;
16093;SDS011;8151;47.824;12.092;2022-12-29T09:59:36;1.63;;;1.53;;
16093;SDS011;8151;47.824;12.092;2022-12-29T10:02:12;1.53;;;1.43;;
16093;SDS011;8151;47.824;12.092;2022-12-29T10:04:52;2.47;;;1.70;;
16093;SDS011;8151;47.824;12.092;2022-12-29T10:07:24;5.37;;;1.67;;
16093;SDS011;8151;47.824;12.092;2022-12-29T10:10:02;2.83;;;1.50;;
16093;SDS011;8151;47.824;12.092;2022-12-29T10:12:46;1.87;;;1.60;;
16093;SDS011;8151;47.824;12.092;2022-12-29T10:15:30;3.30;;;1.73;;
16093;SDS011;8151;47.824;12.092;2022-12-29T10:18:15;2.13;;;1.50;;
16093;SDS011;8151;47.824;12.092;2022-12-29T10:20:52;1.50;;;1.40;;
16093;SDS011;8151;47.824;12.092;2022-12-29T10:23:27;1.53;;;1.43;;
16093;SDS011;8151;47.824;12.092;2022-12-29T10:25:59;2.80;;;1.50;;
16093;SDS011;8151;47.824;12.092;2022-12-29T10:28:34;2.20;;;1.80;;
16093;SDS011;8151;47.824;12.092;2022-12-29T10:31:11;2.80;;;1.67;;
16093;SDS011;8151;47.824;12.092;2022-12-29T10:33:48;2.10;;;1.53;;
16093;SDS011;8151;47.824;12.092;2022-12-29T10:36:21;1.83;;;1.60;;
16093;SDS011;8151;47.824;12.092;2022-12-29T10:38:58;1.80;;;1.70;;
16093;SDS011;8151;47.824;12.092;2022-12-29T10:41:36;2.03;;;1.70;;
16093;SDS011;8151;47.824;12.092;2022-12-29T10:44:09;2.27;;;1.57;;
16093;SDS011;8151;47.824;12.092;2022-12-29T10:46:44;1.70;;;1.57;;
16093;SDS011;8151;47.824;12.092;2022-12-29T10:49:19;1.80;;;1.50;;
16093;SDS011;8151;47.824;12.092;2022-12-29T10:51:48;2.17;;;1.70;;
16093;SDS011;8151;47.824;12.092;2022-12-29T10:54:19;2.53;;;1.60;;
16093;SDS011;8151;47.824;12.092;2022-12-29T10:56:53;1.87;;;1.60;;
16093;SDS011;8151;47.824;12.092;2022-12-29T10:59:26;2.60;;;1.50;;
16093;SDS011;8151;47.824;12.092;2022-12-29T11:02:00;2.07;;;1.70;;
16093;SDS011;8151;47.824;12.092;2022-12-29T11:04:43;1.90;;;1.70;;
16093;SDS011;8151;47.824;12.092;2022-12-29T11:07:19;2.37;;;1.67;;
16093;SDS011;8151;47.824;12.092;2022-12-29T11:09:53;1.43;;;1.20;;
16093;SDS011;8151;47.824;12.092;2022-12-29T11:12:23;2.43;;;1.87;;
16093;SDS011;8151;47.824;12.092;2022-12-29T11:15:11;1.60;;;1.50;;
16093;SDS011;8151;47.824;12.092;2022-12-29T11:17:44;1.83;;;1.60;;
16093;SDS011;8151;47.824;12.092;2022-12-29T11:20:27;1.33;;;1.23;;
16093;SDS011;8151;47.824;12.092;2022-12-29T11:22:58;1.60;;;1.50;;
16093;SDS011;8151;47.824;12.092;2022-12-29T11:25:27;1.37;;;1.27;;
16093;SDS011;8151;47.824;12.092;2022-12-29T11:27:56;2.90;;;1.40;;
16093;SDS011;8151;47.824;12.092;2022-12-29T11:30:28;1.80;;;1.27;;
16093;SDS011;8151;47.824;12.092;2022-12-29T11:33:02;1.73;;;1.63;;
16093;SDS011;8151;47.824;12.092;2022-12-29T11:35:33;1.30;;;1.20;;
16093;SDS011;8151;47.824;12.092;2022-12-29T11:38:03;1.47;;;1.37;;
16093;SDS011;8151;47.824;12.092;2022-12-29T11:40:33;1.67;;;1.57;;
16093;SDS011;8151;47.824;12.092;2022-12-29T11:43:22;1.10;;;1.00;;
16093;SDS011;8151;47.824;12.092;2022-12-29T11:45:57;1.10;;;1.07;;
16093;SDS011;8151;47.824;12.092;2022-12-29T11:48:27;1.50;;;1.40;;
16093;SDS011;8151;47.824;12.092;2022-12-29T11:51:00;3.07;;;1.50;;
16093;SDS011;8151;47.824;12.092;2022-12-29T11:53:31;1.93;;;1.70;;
16093;SDS011;8151;47.824;12.092;2022-12-29T11:56:07;1.90;;;1.50;;
16093;SDS011;8151;47.824;12.092;2022-12-29T11:58:38;1.83;;;1.60;;
16093;SDS011;8151;47.824;12.092;2022-12-29T12:01:10;2.47;;;1.53;;
16093;SDS011;8151;47.824;12.092;2022-12-29T12:03:44;1.90;;;1.63;;
16093;SDS011;8151;47.824;12.092;2022-12-29T12:06:19;2.20;;;1.50;;
16093;SDS011;8151;47.824;12.092;2022-12-29T12:08:52;3.30;;;1.70;;
16093;SDS011;8151;47.824;12.092;2022-12-29T12:11:24;2.53;;;1.57;;
16093;SDS011;8151;47.824;12.092;2022-12-29T12:14:04;2.53;;;1.80;;
16093;SDS011;8151;47.824;12.092;2022-12-29T12:16:40;3.17;;;1.80;;
16093;SDS011;8151;47.824;12.092;2022-12-29T12:19:13;2.73;;;1.80;;
16093;SDS011;8151;47.824;12.092;2022-12-29T12:21:53;1.60;;;1.50;;
16093;SDS011;8151;47.824;12.092;2022-12-29T12:24:34;1.73;;;1.63;;
16093;SDS011;8151;47.824;12.092;2022-12-29T12:27:09;2.17;;;1.80;;
16093;SDS011;8151;47.824;12.092;2022-12-29T12:29:43;1.83;;;1.43;;
16093;SDS011;8151;47.824;12.092;2022-12-29T12:32:20;2.10;;;1.90;;
16093;SDS011;8151;47.824;12.092;2022-12-29T12:34:55;1.97;;;1.60;;
16093;SDS011;8151;47.824;12.092;2022-12-29T12:37:43;1.70;;;1.60;;
16093;SDS011;8151;47.824;12.092;2022-12-29T12:43:26;1.80;;;1.70;;
16093;SDS011;8151;47.824;12.092;2022-12-29T12:46:08;1.70;;;1.50;;
16093;SDS011;8151;47.824;12.092;2022-12-29T12:48:53;1.87;;;1.60;;
16093;SDS011;8151;47.824;12.092;2022-12-29T12:51:38;2.17;;;1.53;;
16093;SDS011;8151;47.824;12.092;2022-12-29T12:54:20;2.07;;;1.70;;
16093;SDS011;8151;47.824;12.092;2022-12-29T12:57:01;2.10;;;1.50;;
16093;SDS011;8151;47.824;12.092;2022-12-29T12:59:42;1.70;;;1.50;;
16093;SDS011;8151;47.824;12.092;2022-12-29T13:02:23;2.43;;;1.60;;
16093;SDS011;8151;47.824;12.092;2022-12-29T13:05:13;1.73;;;1.40;;
16093;SDS011;8151;47.824;12.092;2022-12-29T13:08:03;2.57;;;1.37;;
16093;SDS011;8151;47.824;12.092;2022-12-29T13:10:46;1.67;;;1.53;;
16093;SDS011;8151;47.824;12.092;2022-12-29T13:13:28;1.50;;;1.40;;
16093;SDS011;8151;47.824;12.092;2022-12-29T13:16:14;4.97;;;1.40;;
16093;SDS011;8151;47.824;12.092;2022-12-29T13:18:52;3.53;;;1.63;;
16093;SDS011;8151;47.824;12.092;2022-12-29T13:21:29;4.73;;;1.30;;
16093;SDS011;8151;47.824;12.092;2022-12-29T13:24:12;2.70;;;1.53;;
16093;SDS011;8151;47.824;12.092;2022-12-29T13:26:49;3.83;;;1.57;;
16093;SDS011;8151;47.824;12.092;2022-12-29T13:29:23;1.80;;;1.57;;
16093;SDS011;8151;47.824;12.092;2022-12-29T13:32:02;1.77;;;1.63;;
16093;SDS011;8151;47.824;12.092;2022-12-29T13:34:44;2.47;;;1.53;;
16093;SDS011;8151;47.824;12.092;2022-12-29T13:37:23;1.90;;;1.40;;
16093;SDS011;8151;47.824;12.092;2022-12-29T13:39:57;1.73;;;1.60;;
16093;SDS011;8151;47.824;12.092;2022-12-29T13:42:31;1.63;;;1.47;;
16093;SDS011;8151;47.824;12.092;2022-12-29T13:45:02;1.43;;;1.20;;
16093;SDS011;8151;47.824;12.092;2022-12-29T13:47:35;2.70;;;1.37;;
16093;SDS011;8151;47.824;12.092;2022-12-29T13:50:13;2.57;;;1.73;;
16093;SDS011;8151;47.824;12.092;2022-12-29T13:52:45;2.20;;;1.83;;
16093;SDS011;8151;47.824;12.092;2022-12-29T13:55:26;2.00;;;1.53;;
16093;SDS011;8151;47.824;12.092;2022-12-29T13:58:00;3.23;;;1.20;;
16093;SDS011;8151;47.824;12.092;2022-12-29T14:00:35;1.80;;;1.57;;
16093;SDS011;8151;47.824;12.092;2022-12-29T14:03:24;2.20;;;1.80;;
16093;SDS011;8151;47.824;12.092;2022-12-29T14:06:14;1.43;;;1.33;;
16093;SDS011;8151;47.824;12.092;2022-12-29T14:08:45;3.03;;;1.60;;
16093;SDS011;8151;47.824;12.092;2022-12-29T14:11:16;1.27;;;1.17;;
16093;SDS011;8151;47.824;12.092;2022-12-29T14:13:52;1.53;;;1.30;;
16093;SDS011;8151;47.824;12.092;2022-12-29T14:16:24;1.50;;;1.40;;
16093;SDS011;8151;47.824;12.092;2022-12-29T14:18:55;1.53;;;1.43;;
16093;SDS011;8151;47.824;12.092;2022-12-29T14:21:25;1.30;;;1.20;;
16093;SDS011;8151;47.824;12.092;2022-12-29T14:24:02;1.97;;;1.73;;
16093;SDS011;8151;47.824;12.092;2022-12-29T14:33:12;2.70;;;1.33;;
16093;SDS011;8151;47.824;12.092;2022-12-29T14:35:42;3.40;;;1.60;;
16093;SDS011;8151;47.824;12.092;2022-12-29T14:38:14;2.23;;;1.70;;
16093;SDS011;8151;47.824;12.092;2022-12-29T14:40:45;2.17;;;1.97;;
16093;SDS011;8151;47.824;12.092;2022-12-29T14:43:18;2.17;;;1.70;;
16093;SDS011;8151;47.824;12.092;2022-12-29T14:45:53;1.93;;;1.77;;
16093;SDS011;8151;47.824;12.092;2022-12-29T14:51:19;4.03;;;2.40;;
16093;SDS011;8151;47.824;12.092;2022-12-29T14:53:55;3.20;;;2.30;;
16093;SDS011;8151;47.824;12.092;2022-12-29T14:56:27;3.43;;;2.20;;
16093;SDS011;8151;47.824;12.092;2022-12-29T14:58:59;2.47;;;1.87;;
16093;SDS011;8151;47.824;12.092;2022-12-29T15:01:36;1.80;;;1.60;;
16093;SDS011;8151;47.824;12.092;2022-12-29T15:04:17;2.63;;;1.57;;
16093;SDS011;8151;47.824;12.092;2022-12-29T15:06:48;2.33;;;1.70;;
16093;SDS011;8151;47.824;12.092;2022-12-29T15:09:23;3.80;;;1.63;;
16093;SDS011;8151;47.824;12.092;2022-12-29T15:11:57;1.70;;;1.37;;
16093;SDS011;8151;47.824;12.092;2022-12-29T15:14:35;2.10;;;1.90;;
16093;SDS011;8151;47.824;12.092;2022-12-29T15:17:09;1.90;;;1.70;;
16093;SDS011;8151;47.824;12.092;2022-12-29T15:19:51;1.70;;;1.60;;
16093;SDS011;8151;47.824;12.092;2022-12-29T15:22:20;2.63;;;2.10;;
16093;SDS011;8151;47.824;12.092;2022-12-29T15:24:49;3.17;;;2.00;;
16093;SDS011;8151;47.824;12.092;2022-12-29T15:27:20;2.57;;;2.00;;
16093;SDS011;8151;47.824;12.092;2022-12-29T15:29:55;8.27;;;2.73;;
16093;SDS011;8151;47.824;12.092;2022-12-29T15:32:26;2.97;;;2.23;;
16093;SDS011;8151;47.824;12.092;2022-12-29T15:34:58;4.20;;;2.47;;
16093;SDS011;8151;47.824;12.092;2022-12-29T15:37:31;3.13;;;2.00;;
16093;SDS011;8151;47.824;12.092;2022-12-29T15:40:02;2.60;;;2.10;;
16093;SDS011;8151;47.824;12.092;2022-12-29T15:45:28;3.80;;;2.17;;